Time;durP1;ratioP1;P1;durP2;ratioP2;P2;SDS_P1;SDS_P2;PMS_P1;PMS_P2;Temp;Humidity;BMP_temperature;BMP_pressure;BME280_temperature;BME280_humidity;BME280_pressure;Samples;Min_cycle;Max_cycle;Signal;HPM_P1;HPM_P2
2023/02/24 00:01:58;;;;;;;21.98;11.75;;;;;;;;;;5050690;28;20245;-84
2023/02/24 00:04:26;;;;;;;23.23;11.40;;;;;;;;;;5053338;28;20353;-84
2023/02/24 00:06:53;;;;;;;37.30;18.10;;;;;;;;;;5051309;28;20203;-84
2023/02/24 00:09:21;;;;;;;40.22;19.98;;;;;;;;;;5050577;28;20202;-84
2023/02/24 00:11:49;;;;;;;45.42;21.33;;;;;;;;;;5052248;28;20580;-84
2023/02/24 00:14:19;;;;;;;48.78;23.30;;;;;;;;;;5051302;28;20356;-84
2023/02/24 00:16:46;;;;;;;46.88;21.42;;;;;;;;;;5052443;28;20281;-85
2023/02/24 00:19:15;;;;;;;47.78;23.75;;;;;;;;;;5050977;28;20673;-85
2023/02/24 00:21:42;;;;;;;45.42;18.92;;;;;;;;;;5052616;28;20219;-85
2023/02/24 00:24:10;;;;;;;40.22;18.45;;;;;;;;;;5050462;28;20352;-85
2023/02/24 00:26:39;;;;;;;37.42;15.88;;;;;;;;;;5050715;28;20203;-85
2023/02/24 00:29:07;;;;;;;41.28;15.93;;;;;;;;;;5051171;28;20222;-85
2023/02/24 00:31:38;;;;;;;31.90;15.52;;;;;;;;;;5052268;28;20202;-85
2023/02/24 00:34:05;;;;;;;25.13;14.27;;;;;;;;;;5052743;28;20229;-85
2023/02/24 00:36:33;;;;;;;24.65;12.88;;;;;;;;;;5048843;28;20195;-85
2023/02/24 00:39:02;;;;;;;22.55;12.13;;;;;;;;;;5052244;28;20213;-84
2023/02/24 00:41:30;;;;;;;21.20;10.77;;;;;;;;;;5050079;28;20738;-84
2023/02/24 00:43:58;;;;;;;18.17;7.93;;;;;;;;;;5050318;28;20704;-84
2023/02/24 00:46:30;;;;;;;16.67;7.82;;;;;;;;;;5052431;28;20682;-84
2023/02/24 00:48:58;;;;;;;13.73;7.75;;;;;;;;;;5050524;28;20293;-84
2023/02/24 00:51:26;;;;;;;10.00;6.57;;;;;;;;;;5051574;28;20222;-84
2023/02/24 00:53:55;;;;;;;16.83;7.30;;;;;;;;;;5052096;28;20321;-84
2023/02/24 00:56:24;;;;;;;14.05;6.30;;;;;;;;;;5048591;28;20202;-84
2023/02/24 00:58:53;;;;;;;12.07;6.50;;;;;;;;;;5032189;28;20203;-84
2023/02/24 01:01:22;;;;;;;10.60;5.63;;;;;;;;;;5031798;28;20601;-84
2023/02/24 01:03:50;;;;;;;20.85;5.70;;;;;;;;;;5042622;28;20228;-84
2023/02/24 01:06:19;;;;;;;16.67;5.82;;;;;;;;;;5049270;28;20230;-84
2023/02/24 01:08:48;;;;;;;12.73;5.32;;;;;;;;;;5050326;28;20218;-84
2023/02/24 01:14:01;;;;;;;9.98;5.43;;;;;;;;;;5049948;28;20214;-84
2023/02/24 01:16:28;;;;;;;19.27;6.63;;;;;;;;;;5051685;28;20226;-84
2023/02/24 01:18:55;;;;;;;15.52;6.85;;;;;;;;;;5051692;28;20285;-84
2023/02/24 01:21:23;;;;;;;15.90;7.88;;;;;;;;;;5050851;28;20587;-84
2023/02/24 01:23:52;;;;;;;17.83;8.43;;;;;;;;;;5051527;28;20250;-84
2023/02/24 01:26:20;;;;;;;17.83;9.02;;;;;;;;;;5048909;28;20203;-84
2023/02/24 01:28:47;;;;;;;20.48;8.95;;;;;;;;;;5051857;28;20202;-84
2023/02/24 01:31:17;;;;;;;21.63;8.77;;;;;;;;;;5047422;28;20191;-84
2023/02/24 01:33:44;;;;;;;20.90;8.75;;;;;;;;;;5051676;28;20269;-84
2023/02/24 01:36:12;;;;;;;12.02;8.05;;;;;;;;;;5050204;28;20735;-84
2023/02/24 01:38:42;;;;;;;14.20;8.45;;;;;;;;;;5050956;28;20289;-84
2023/02/24 01:41:09;;;;;;;18.52;8.05;;;;;;;;;;5052118;28;20223;-84
2023/02/24 01:43:51;;;;;;;17.45;9.82;;;;;;;;;;5049573;28;20215;-84
2023/02/24 01:46:22;;;;;;;16.50;8.30;;;;;;;;;;5050726;28;20289;-84
2023/02/24 01:48:49;;;;;;;19.80;8.38;;;;;;;;;;5049936;28;20293;-84
2023/02/24 01:51:16;;;;;;;20.88;9.35;;;;;;;;;;5051599;28;20317;-84
2023/02/24 01:53:45;;;;;;;18.63;9.48;;;;;;;;;;5051288;28;20296;-84
2023/02/24 01:56:14;;;;;;;26.52;13.60;;;;;;;;;;5051454;28;20272;-84
2023/02/24 01:58:41;;;;;;;36.40;15.48;;;;;;;;;;5051249;28;20203;-84
2023/02/24 02:01:09;;;;;;;40.55;16.50;;;;;;;;;;5051558;28;20206;-84
2023/02/24 02:03:38;;;;;;;36.55;18.08;;;;;;;;;;5049355;28;20272;-84
2023/02/24 02:06:06;;;;;;;35.60;17.48;;;;;;;;;;5049256;28;20203;-84
2023/02/24 02:08:35;;;;;;;40.97;19.75;;;;;;;;;;5049827;28;20280;-84
2023/02/24 02:11:05;;;;;;;41.05;18.08;;;;;;;;;;5050293;28;20199;-84
2023/02/24 02:13:34;;;;;;;39.15;18.27;;;;;;;;;;5048772;28;20245;-84
2023/02/24 02:16:12;;;;;;;36.97;16.13;;;;;;;;;;5049077;28;20198;-84
2023/02/24 02:18:44;;;;;;;39.05;18.35;;;;;;;;;;5047294;28;20416;-84
2023/02/24 02:21:29;;;;;;;49.38;18.17;;;;;;;;;;5051194;28;20317;-84
2023/02/24 02:24:17;;;;;;;39.65;17.35;;;;;;;;;;5051158;28;20219;-84
2023/02/24 02:27:07;;;;;;;36.97;17.52;;;;;;;;;;5024892;28;20206;-84
2023/02/24 02:29:49;;;;;;;44.00;18.15;;;;;;;;;;5049498;28;20199;-84
2023/02/24 02:32:32;;;;;;;34.28;16.90;;;;;;;;;;5050719;28;20194;-84
2023/02/24 02:35:07;;;;;;;39.90;18.13;;;;;;;;;;5054829;28;20329;-84
2023/02/24 02:37:35;;;;;;;46.25;16.00;;;;;;;;;;5054789;28;20204;-84
2023/02/24 02:40:15;;;;;;;45.95;18.92;;;;;;;;;;5054979;28;20583;-84
2023/02/24 02:42:44;;;;;;;39.47;18.38;;;;;;;;;;5054386;28;20682;-84
2023/02/24 02:45:14;;;;;;;45.67;18.38;;;;;;;;;;5054821;28;20303;-84
2023/02/24 02:47:42;;;;;;;36.38;16.45;;;;;;;;;;5054901;28;20289;-84
2023/02/24 02:50:18;;;;;;;48.00;17.75;;;;;;;;;;5051813;28;20230;-84
2023/02/24 02:52:49;;;;;;;40.05;16.55;;;;;;;;;;5054311;28;20221;-83
2023/02/24 02:55:20;;;;;;;48.55;16.35;;;;;;;;;;5054481;28;20237;-84
2023/02/24 02:57:50;;;;;;;39.92;19.05;;;;;;;;;;5053405;28;20209;-84
2023/02/24 03:00:21;;;;;;;35.20;16.60;;;;;;;;;;5054399;28;20203;-84
2023/02/24 03:02:50;;;;;;;44.97;17.70;;;;;;;;;;5051539;28;20272;-84
2023/02/24 03:05:20;;;;;;;42.50;17.15;;;;;;;;;;5054127;28;20768;-84
2023/02/24 03:07:50;;;;;;;45.20;16.73;;;;;;;;;;5052666;28;20213;-84
2023/02/24 03:10:21;;;;;;;31.67;15.68;;;;;;;;;;5054488;28;20272;-84
2023/02/24 03:12:50;;;;;;;49.10;17.67;;;;;;;;;;5053731;28;20615;-84
2023/02/24 03:15:19;;;;;;;45.05;16.27;;;;;;;;;;5053758;28;20222;-84
2023/02/24 03:17:47;;;;;;;40.85;16.58;;;;;;;;;;5054077;28;20633;-84
2023/02/24 03:20:19;;;;;;;42.08;16.58;;;;;;;;;;5051393;28;20245;-84
2023/02/24 03:22:50;;;;;;;32.13;15.35;;;;;;;;;;5051771;28;20218;-84
2023/02/24 03:25:22;;;;;;;46.42;16.63;;;;;;;;;;5037401;28;20219;-84
2023/02/24 03:27:51;;;;;;;49.58;17.58;;;;;;;;;;5053901;28;20290;-84
2023/02/24 03:30:22;;;;;;;49.25;19.58;;;;;;;;;;5053591;28;20207;-84
2023/02/24 03:32:54;;;;;;;34.72;15.55;;;;;;;;;;5052848;28;20198;-84
2023/02/24 03:35:22;;;;;;;41.10;14.75;;;;;;;;;;5053225;28;20250;-84
2023/02/24 03:37:54;;;;;;;41.03;16.02;;;;;;;;;;5053596;28;20198;-84
2023/02/24 03:40:27;;;;;;;34.38;14.07;;;;;;;;;;5049381;28;20289;-84
2023/02/24 03:42:58;;;;;;;50.75;15.38;;;;;;;;;;5052676;28;20241;-84
2023/02/24 03:45:26;;;;;;;44.47;17.02;;;;;;;;;;5053446;28;20195;-84
2023/02/24 03:47:54;;;;;;;40.83;14.73;;;;;;;;;;5053404;28;20677;-84
2023/02/24 03:50:23;;;;;;;32.20;12.15;;;;;;;;;;5053573;28;20199;-84
2023/02/24 03:53:01;;;;;;;37.15;14.02;;;;;;;;;;5051520;28;20599;-84
2023/02/24 03:55:33;;;;;;;34.88;14.65;;;;;;;;;;5051549;28;20664;-83
2023/02/24 03:58:07;;;;;;;30.02;13.02;;;;;;;;;;5053322;28;20205;-84
2023/02/24 04:00:38;;;;;;;39.45;13.10;;;;;;;;;;5053432;28;20217;-84
2023/02/24 04:03:10;;;;;;;24.98;10.95;;;;;;;;;;5052187;28;20222;-83
2023/02/24 04:05:46;;;;;;;25.50;11.27;;;;;;;;;;5053129;28;20209;-83
2023/02/24 04:08:16;;;;;;;31.70;11.38;;;;;;;;;;5053166;28;20202;-83
2023/02/24 04:10:51;;;;;;;23.42;11.27;;;;;;;;;;5050977;28;20194;-83
2023/02/24 04:13:20;;;;;;;33.38;11.32;;;;;;;;;;5052038;28;20197;-83
2023/02/24 04:15:49;;;;;;;38.85;10.63;;;;;;;;;;5053074;28;20195;-84
2023/02/24 04:18:17;;;;;;;25.23;9.20;;;;;;;;;;5050622;28;20660;-83
2023/02/24 04:20:48;;;;;;;23.27;9.90;;;;;;;;;;5052163;28;20209;-83
2023/02/24 04:23:18;;;;;;;23.30;10.40;;;;;;;;;;5052200;28;20218;-83
2023/02/24 04:25:47;;;;;;;35.85;13.98;;;;;;;;;;5051015;28;20198;-83
2023/02/24 04:28:17;;;;;;;26.88;10.77;;;;;;;;;;5051087;28;20663;-83
2023/02/24 04:30:48;;;;;;;39.97;10.02;;;;;;;;;;5050858;28;20656;-83
2023/02/24 04:33:15;;;;;;;15.45;8.38;;;;;;;;;;5050470;28;20225;-83
2023/02/24 04:35:44;;;;;;;25.08;9.32;;;;;;;;;;5052170;28;20202;-84
2023/02/24 04:38:12;;;;;;;15.68;6.68;;;;;;;;;;5052086;28;20729;-83
2023/02/24 04:40:41;;;;;;;20.55;6.60;;;;;;;;;;5052344;28;20747;-83
2023/02/24 04:43:08;;;;;;;15.82;6.57;;;;;;;;;;5050422;28;20292;-83
2023/02/24 04:45:38;;;;;;;18.58;7.60;;;;;;;;;;5052523;28;20203;-83
2023/02/24 04:48:11;;;;;;;18.52;6.82;;;;;;;;;;5050617;28;20222;-83
2023/02/24 04:50:39;;;;;;;24.40;8.00;;;;;;;;;;5052233;28;20199;-83
2023/02/24 04:53:08;;;;;;;30.30;7.03;;;;;;;;;;5051844;28;20679;-83
2023/02/24 04:55:38;;;;;;;15.35;6.57;;;;;;;;;;5051295;28;20198;-83
2023/02/24 04:58:07;;;;;;;16.73;6.43;;;;;;;;;;5049848;28;20293;-83
2023/02/24 05:00:34;;;;;;;18.33;4.43;;;;;;;;;;5048926;28;20205;-83
2023/02/24 05:03:03;;;;;;;15.68;4.68;;;;;;;;;;5049537;28;20245;-83
2023/02/24 05:05:32;;;;;;;18.00;4.88;;;;;;;;;;5051619;28;20205;-83
2023/02/24 05:08:01;;;;;;;15.15;5.13;;;;;;;;;;5049821;28;20194;-84
2023/02/24 05:10:29;;;;;;;19.30;6.70;;;;;;;;;;5052026;28;20622;-83
2023/02/24 05:12:58;;;;;;;10.23;4.05;;;;;;;;;;5051795;28;20541;-84
2023/02/24 05:15:30;;;;;;;14.07;4.72;;;;;;;;;;5049798;28;20199;-84
2023/02/24 05:17:58;;;;;;;19.08;4.00;;;;;;;;;;5052235;28;20230;-83
2023/02/24 05:23:10;;;;;;;14.02;5.30;;;;;;;;;;5051255;28;20249;-83
2023/02/24 05:25:37;;;;;;;11.43;3.58;;;;;;;;;;5052114;28;20202;-84
2023/02/24 05:28:05;;;;;;;8.35;3.67;;;;;;;;;;5049889;28;20451;-84
2023/02/24 05:30:34;;;;;;;7.72;2.63;;;;;;;;;;5050008;28;20194;-84
2023/02/24 05:33:01;;;;;;;14.02;3.47;;;;;;;;;;5049389;28;20211;-84
2023/02/24 05:35:31;;;;;;;8.65;2.65;;;;;;;;;;5050625;28;20571;-84
2023/02/24 05:37:58;;;;;;;9.90;2.58;;;;;;;;;;5049267;28;20641;-84
2023/02/24 05:40:25;;;;;;;16.67;3.95;;;;;;;;;;5051888;28;20202;-84
2023/02/24 05:42:52;;;;;;;19.48;4.82;;;;;;;;;;5051156;28;20214;-83
2023/02/24 05:45:19;;;;;;;12.68;4.10;;;;;;;;;;5051034;28;20235;-83
2023/02/24 05:47:48;;;;;;;7.00;3.45;;;;;;;;;;5050066;28;20206;-83
2023/02/24 05:50:16;;;;;;;9.65;3.55;;;;;;;;;;5049824;28;20256;-83
2023/02/24 05:52:44;;;;;;;11.85;2.78;;;;;;;;;;5050270;28;20201;-83
2023/02/24 05:55:12;;;;;;;5.50;3.72;;;;;;;;;;5065717;22;20226;-77
2023/02/24 05:57:40;;;;;;;9.35;3.63;;;;;;;;;;5051422;28;20676;-75
2023/02/24 06:00:14;;;;;;;14.48;3.47;;;;;;;;;;5051706;28;20281;-75
2023/02/24 06:02:48;;;;;;;13.00;3.47;;;;;;;;;;5048810;28;20301;-75
2023/02/24 06:05:24;;;;;;;14.23;3.42;;;;;;;;;;5046650;28;20296;-75
2023/02/24 06:07:51;;;;;;;12.45;3.13;;;;;;;;;;5054669;28;20666;-76
2023/02/24 06:10:21;;;;;;;12.55;3.95;;;;;;;;;;5054832;28;20687;-75
2023/02/24 06:12:48;;;;;;;8.13;3.05;;;;;;;;;;5054767;28;20226;-74
2023/02/24 06:15:16;;;;;;;9.82;3.75;;;;;;;;;;5054214;28;20236;-76
2023/02/24 06:17:43;;;;;;;10.75;3.67;;;;;;;;;;5055109;28;20252;-75
2023/02/24 06:20:14;;;;;;;7.88;3.85;;;;;;;;;;5053212;28;20195;-75
2023/02/24 06:22:42;;;;;;;21.33;4.40;;;;;;;;;;5054789;28;20219;-75
2023/02/24 06:25:11;;;;;;;11.40;3.33;;;;;;;;;;5054803;28;20225;-75
2023/02/24 06:27:38;;;;;;;11.98;3.50;;;;;;;;;;5054292;28;20252;-75
2023/02/24 06:30:09;;;;;;;8.15;2.35;;;;;;;;;;5051972;28;20643;-76
2023/02/24 06:32:36;;;;;;;18.65;4.75;;;;;;;;;;5051987;28;20252;-76
2023/02/24 06:35:04;;;;;;;6.32;3.38;;;;;;;;;;5054555;28;20265;-75
2023/02/24 06:37:31;;;;;;;9.57;2.33;;;;;;;;;;5054801;28;20694;-75
2023/02/24 06:40:00;;;;;;;9.10;2.95;;;;;;;;;;5049267;28;20187;-75
2023/02/24 06:42:27;;;;;;;8.60;3.00;;;;;;;;;;5034745;28;20225;-75
2023/02/24 06:44:54;;;;;;;17.90;3.60;;;;;;;;;;5070789;28;20218;-76
2023/02/24 06:47:21;;;;;;;10.88;3.30;;;;;;;;;;5053952;28;20203;-75
2023/02/24 06:49:48;;;;;;;9.00;5.25;;;;;;;;;;5053948;28;20194;-77
2023/02/24 06:52:17;;;;;;;16.55;4.18;;;;;;;;;;5053412;28;20201;-75
2023/02/24 06:54:46;;;;;;;5.85;2.92;;;;;;;;;;5040849;28;20623;-76
2023/02/24 06:57:14;;;;;;;10.45;3.78;;;;;;;;;;5041633;28;20248;-75
2023/02/24 06:59:41;;;;;;;9.05;2.15;;;;;;;;;;5051666;28;20203;-76
2023/02/24 07:02:10;;;;;;;7.55;3.00;;;;;;;;;;5053834;28;20209;-75
2023/02/24 07:04:42;;;;;;;13.13;3.20;;;;;;;;;;5054053;28;20589;-75
2023/02/24 07:07:12;;;;;;;7.82;3.15;;;;;;;;;;5044372;28;20209;-76
2023/02/24 07:09:41;;;;;;;15.73;4.30;;;;;;;;;;5050394;28;20664;-75
2023/02/24 07:12:09;;;;;;;14.15;3.25;;;;;;;;;;5051909;28;20253;-76
2023/02/24 07:14:39;;;;;;;7.88;2.70;;;;;;;;;;5053758;28;20626;-76
2023/02/24 07:17:07;;;;;;;6.68;2.35;;;;;;;;;;5050749;28;20542;-76
2023/02/24 07:19:34;;;;;;;7.72;3.20;;;;;;;;;;5046642;28;20256;-75
2023/02/24 07:22:02;;;;;;;9.80;2.75;;;;;;;;;;5043474;28;20623;-75
2023/02/24 07:24:34;;;;;;;5.10;2.42;;;;;;;;;;5052175;28;20219;-75
2023/02/24 07:27:03;;;;;;;19.48;3.15;;;;;;;;;;5053713;28;20194;-74
2023/02/24 07:29:31;;;;;;;11.27;3.75;;;;;;;;;;5048802;28;20199;-76
2023/02/24 07:32:02;;;;;;;14.45;2.70;;;;;;;;;;5052631;28;20209;-76
2023/02/24 07:34:29;;;;;;;5.43;2.97;;;;;;;;;;5051210;28;20214;-75
2023/02/24 07:36:57;;;;;;;5.78;3.30;;;;;;;;;;5050720;28;20212;-75
2023/02/24 07:39:24;;;;;;;15.45;2.35;;;;;;;;;;5039198;28;20203;-76
2023/02/24 07:41:53;;;;;;;8.70;3.15;;;;;;;;;;5034870;28;20444;-74
2023/02/24 07:44:22;;;;;;;15.55;3.40;;;;;;;;;;5046825;28;20485;-74
2023/02/24 07:46:49;;;;;;;17.52;3.63;;;;;;;;;;5040161;28;20195;-74
2023/02/24 07:49:18;;;;;;;11.70;2.67;;;;;;;;;;5047473;28;20203;-74
2023/02/24 07:51:46;;;;;;;15.15;3.63;;;;;;;;;;5045410;28;20195;-75
2023/02/24 07:54:14;;;;;;;8.63;2.65;;;;;;;;;;5045894;28;20570;-74
2023/02/24 07:56:47;;;;;;;9.13;2.75;;;;;;;;;;5046431;28;20202;-74
2023/02/24 07:59:17;;;;;;;11.27;3.00;;;;;;;;;;5050855;28;20202;-75
2023/02/24 08:01:49;;;;;;;5.30;2.35;;;;;;;;;;5056239;28;20209;-74
2023/02/24 08:04:19;;;;;;;12.55;3.72;;;;;;;;;;5051529;28;20714;-76
2023/02/24 08:06:49;;;;;;;11.75;3.97;;;;;;;;;;5048242;28;20291;-75
2023/02/24 08:09:17;;;;;;;15.15;3.65;;;;;;;;;;5051533;28;20664;-77
2023/02/24 08:11:45;;;;;;;14.13;4.50;;;;;;;;;;5046926;28;20198;-76
2023/02/24 08:14:13;;;;;;;10.07;3.42;;;;;;;;;;5049729;28;20211;-75
2023/02/24 08:16:40;;;;;;;8.82;2.45;;;;;;;;;;5044505;28;20651;-75
2023/02/24 08:19:11;;;;;;;4.72;2.33;;;;;;;;;;5051534;28;20198;-76
2023/02/24 08:21:40;;;;;;;21.60;6.70;;;;;;;;;;5050401;28;20209;-75
2023/02/24 08:24:09;;;;;;;11.88;3.70;;;;;;;;;;5051572;28;20218;-75
2023/02/24 08:26:43;;;;;;;11.30;4.28;;;;;;;;;;5053840;28;20240;-76
2023/02/24 08:29:10;;;;;;;22.73;3.95;;;;;;;;;;5051384;28;20201;-75
2023/02/24 08:31:37;;;;;;;8.00;4.72;;;;;;;;;;5050799;28;20190;-76
2023/02/24 08:34:04;;;;;;;11.63;3.45;;;;;;;;;;5052026;28;20211;-76
2023/02/24 08:36:31;;;;;;;8.35;2.70;;;;;;;;;;5049991;28;20205;-75
2023/02/24 08:39:00;;;;;;;20.52;3.22;;;;;;;;;;5052008;28;20191;-75
2023/02/24 08:41:43;;;;;;;21.63;4.55;;;;;;;;;;5051070;28;20198;-75
2023/02/24 08:44:11;;;;;;;6.78;2.95;;;;;;;;;;5050626;28;20218;-75
2023/02/24 08:46:38;;;;;;;9.00;3.05;;;;;;;;;;5042280;28;20209;-76
2023/02/24 08:49:09;;;;;;;10.52;4.25;;;;;;;;;;5051964;28;20192;-76
2023/02/24 08:51:42;;;;;;;12.73;3.25;;;;;;;;;;5051615;28;20547;-74
2023/02/24 08:54:14;;;;;;;18.10;5.30;;;;;;;;;;5051399;28;20230;-75
2023/02/24 08:56:42;;;;;;;14.55;4.30;;;;;;;;;;5053406;28;20195;-74
2023/02/24 08:59:27;;;;;;;23.17;6.70;;;;;;;;;;5051571;28;20613;-74
2023/02/24 09:02:16;;;;;;;20.55;6.05;;;;;;;;;;5044858;28;20205;-75
2023/02/24 09:04:44;;;;;;;16.73;4.95;;;;;;;;;;5045964;28;20222;-76
2023/02/24 09:07:14;;;;;;;16.30;5.82;;;;;;;;;;5051344;28;20199;-76
2023/02/24 09:09:43;;;;;;;24.95;5.85;;;;;;;;;;5051700;28;20198;-75
2023/02/24 09:12:20;;;;;;;12.57;4.82;;;;;;;;;;5048527;28;20931;-75
2023/02/24 09:14:48;;;;;;;16.77;5.40;;;;;;;;;;5045434;28;20225;-75
2023/02/24 09:17:19;;;;;;;24.33;6.40;;;;;;;;;;5045683;28;20241;-75
2023/02/24 09:22:39;;;;;;;24.30;5.10;;;;;;;;;;5054263;28;20217;-75
2023/02/24 09:25:20;;;;;;;14.43;4.65;;;;;;;;;;5049285;28;20249;-75
2023/02/24 09:27:51;;;;;;;16.35;5.53;;;;;;;;;;5050103;28;20201;-76
2023/02/24 09:33:16;;;;;;;9.60;4.00;;;;;;;;;;5045200;28;20182;-74
2023/02/24 09:35:45;;;;;;;11.23;4.35;;;;;;;;;;5045176;28;20214;-75
2023/02/24 09:38:15;;;;;;;12.38;4.32;;;;;;;;;;5050123;28;20202;-76
2023/02/24 09:40:50;;;;;;;10.52;3.42;;;;;;;;;;5042205;28;20202;-75
2023/02/24 09:43:19;;;;;;;15.10;5.65;;;;;;;;;;5054141;28;20578;-76
2023/02/24 09:45:52;;;;;;;17.08;6.15;;;;;;;;;;5055457;28;20218;-73
2023/02/24 09:48:22;;;;;;;11.55;3.00;;;;;;;;;;5052153;28;20232;-73
2023/02/24 09:51:02;;;;;;;17.42;3.45;;;;;;;;;;5054279;28;20572;-76
2023/02/24 09:53:37;;;;;;;10.80;3.25;;;;;;;;;;5062581;28;20217;-74
2023/02/24 09:56:08;;;;;;;16.02;4.07;;;;;;;;;;5059452;28;20202;-72
2023/02/24 09:58:46;;;;;;;13.52;3.17;;;;;;;;;;5053615;28;20198;-74
2023/02/24 10:01:22;;;;;;;6.80;2.85;;;;;;;;;;5054541;28;20540;-72
2023/02/24 10:03:54;;;;;;;9.52;3.15;;;;;;;;;;5040879;28;20221;-74
2023/02/24 10:06:22;;;;;;;8.35;3.58;;;;;;;;;;5045454;28;20198;-72
2023/02/24 10:08:53;;;;;;;8.45;3.88;;;;;;;;;;5054391;28;20202;-74
2023/02/24 10:11:31;;;;;;;7.85;3.20;;;;;;;;;;5053313;28;20203;-72
2023/02/24 10:13:59;;;;;;;11.23;3.92;;;;;;;;;;5055035;28;20837;-71
2023/02/24 10:16:40;;;;;;;13.63;4.38;;;;;;;;;;5055090;28;20190;-71
2023/02/24 10:19:13;;;;;;;13.68;3.65;;;;;;;;;;5054815;28;20201;-74
2023/02/24 10:21:59;;;;;;;18.60;4.22;;;;;;;;;;5059210;28;20195;-71
2023/02/24 10:24:29;;;;;;;6.90;3.30;;;;;;;;;;5054458;28;20222;-75
2023/02/24 10:26:59;;;;;;;11.15;4.45;;;;;;;;;;5054416;28;20203;-72
2023/02/24 10:29:30;;;;;;;12.05;4.10;;;;;;;;;;5045276;28;20544;-71
2023/02/24 10:32:05;;;;;;;9.63;3.92;;;;;;;;;;5051382;28;20206;-71
2023/02/24 10:34:32;;;;;;;7.63;3.53;;;;;;;;;;5052773;28;20210;-76
2023/02/24 10:37:05;;;;;;;6.18;3.90;;;;;;;;;;5047770;28;20567;-74
2023/02/24 10:39:32;;;;;;;11.77;4.55;;;;;;;;;;5045998;28;20196;-73
2023/02/24 10:42:15;;;;;;;14.38;4.88;;;;;;;;;;5054141;28;20195;-75
2023/02/24 10:44:50;;;;;;;5.50;3.67;;;;;;;;;;5053082;28;20217;-74
2023/02/24 10:47:18;;;;;;;11.98;4.25;;;;;;;;;;5055795;28;20205;-75
2023/02/24 10:49:55;;;;;;;16.50;4.35;;;;;;;;;;5052877;28;20197;-75
2023/02/24 10:55:27;;;;;;;8.52;4.03;;;;;;;;;;5053457;28;20592;-71
2023/02/24 10:58:05;;;;;;;11.20;4.35;;;;;;;;;;5053176;28;20234;-71
2023/02/24 11:03:34;;;;;;;8.77;4.15;;;;;;;;;;5052765;28;20193;-71
2023/02/24 11:06:19;;;;;;;12.00;3.80;;;;;;;;;;5045762;28;20249;-74
2023/02/24 11:09:01;;;;;;;6.45;3.88;;;;;;;;;;5054962;28;20452;-70
2023/02/24 11:17:13;;;;;;;8.85;4.80;;;;;;;;;;5044581;28;20293;-75
2023/02/24 11:17:18;;;;;;;8.07;4.35;;;;;;;;;;5050669;28;20777;-73
2023/02/24 11:19:48;;;;;;;12.05;3.92;;;;;;;;;;5051262;28;20394;-74
2023/02/24 11:22:16;;;;;;;6.65;3.58;;;;;;;;;;5052224;28;20237;-71
2023/02/24 11:24:45;;;;;;;10.00;4.47;;;;;;;;;;5051278;28;20566;-72
2023/02/24 11:27:13;;;;;;;14.02;4.57;;;;;;;;;;5047616;28;20264;-74
2023/02/24 11:29:49;;;;;;;7.90;4.20;;;;;;;;;;5048109;28;20203;-74
2023/02/24 11:32:45;;;;;;;17.52;3.90;;;;;;;;;;5052207;28;20202;-73
2023/02/24 11:35:14;;;;;;;9.65;3.35;;;;;;;;;;5051902;28;20226;-70
2023/02/24 11:37:55;;;;;;;11.60;4.30;;;;;;;;;;5055994;28;20202;-69
2023/02/24 11:40:43;;;;;;;19.90;5.03;;;;;;;;;;5048900;28;20206;-70
2023/02/24 11:43:32;;;;;;;6.07;3.75;;;;;;;;;;5051846;28;20210;-70
2023/02/24 11:46:13;;;;;;;10.50;3.42;;;;;;;;;;5052982;28;20637;-71
2023/02/24 11:48:46;;;;;;;9.48;4.55;;;;;;;;;;5054251;28;20202;-70
2023/02/24 11:51:32;;;;;;;13.18;5.20;;;;;;;;;;5049130;28;20198;-69
2023/02/24 11:54:02;;;;;;;9.52;3.38;;;;;;;;;;5049884;28;20620;-68
2023/02/24 11:56:38;;;;;;;19.10;4.78;;;;;;;;;;5050637;28;20452;-70
2023/02/24 11:59:15;;;;;;;11.35;4.22;;;;;;;;;;5051847;28;20241;-69
2023/02/24 12:01:47;;;;;;;9.25;4.60;;;;;;;;;;5052667;28;20229;-72
2023/02/24 12:04:17;;;;;;;20.02;6.80;;;;;;;;;;5065104;22;20230;-70
2023/02/24 12:06:51;;;;;;;10.18;3.85;;;;;;;;;;5041306;28;20195;-69
2023/02/24 12:09:22;;;;;;;13.73;4.43;;;;;;;;;;5057679;28;20681;-69
2023/02/24 12:11:53;;;;;;;13.35;4.47;;;;;;;;;;5045467;28;20561;-69
2023/02/24 12:14:24;;;;;;;11.52;4.47;;;;;;;;;;5047000;28;20215;-69
2023/02/24 12:16:57;;;;;;;18.63;5.97;;;;;;;;;;5051399;28;20199;-69
2023/02/24 12:19:28;;;;;;;10.10;5.00;;;;;;;;;;5052435;28;20198;-69
2023/02/24 12:22:01;;;;;;;8.38;4.00;;;;;;;;;;5052265;28;20198;-69
2023/02/24 12:24:29;;;;;;;13.93;5.03;;;;;;;;;;5056439;28;20213;-68
2023/02/24 12:27:01;;;;;;;9.55;4.40;;;;;;;;;;5049610;28;20195;-69
2023/02/24 12:29:41;;;;;;;10.60;5.22;;;;;;;;;;5052456;28;20195;-69
2023/02/24 12:32:14;;;;;;;14.60;6.05;;;;;;;;;;5050147;28;20199;-69
2023/02/24 12:34:51;;;;;;;13.68;4.60;;;;;;;;;;5051779;28;20494;-69
2023/02/24 12:37:26;;;;;;;21.17;5.82;;;;;;;;;;5051476;28;20226;-68
2023/02/24 12:39:59;;;;;;;8.55;4.90;;;;;;;;;;5050721;28;20674;-69
2023/02/24 12:42:29;;;;;;;9.30;3.40;;;;;;;;;;5045470;28;20277;-69
2023/02/24 12:45:01;;;;;;;19.60;5.78;;;;;;;;;;5054464;28;20225;-68
2023/02/24 12:47:34;;;;;;;19.85;4.82;;;;;;;;;;5037700;28;20206;-68
2023/02/24 12:50:10;;;;;;;9.57;4.13;;;;;;;;;;5050310;28;20221;-69
2023/02/24 12:52:44;;;;;;;7.45;4.03;;;;;;;;;;5050388;28;20204;-68
2023/02/24 12:55:14;;;;;;;12.07;4.32;;;;;;;;;;5047899;28;20229;-69
2023/02/24 12:57:45;;;;;;;10.75;4.55;;;;;;;;;;5045947;28;20198;-68
2023/02/24 13:00:16;;;;;;;10.82;5.35;;;;;;;;;;5046314;28;20195;-69
2023/02/24 13:02:51;;;;;;;10.77;4.90;;;;;;;;;;5048359;28;20560;-74
2023/02/24 13:05:21;;;;;;;19.25;5.72;;;;;;;;;;5048337;28;20586;-71
2023/02/24 13:07:57;;;;;;;19.38;5.75;;;;;;;;;;5048363;28;20203;-71
2023/02/24 13:10:29;;;;;;;13.27;5.95;;;;;;;;;;5046222;28;20686;-71
2023/02/24 13:13:03;;;;;;;12.40;5.40;;;;;;;;;;5047331;28;20576;-71
2023/02/24 13:15:31;;;;;;;11.18;5.57;;;;;;;;;;5048962;28;20203;-72
2023/02/24 13:17:59;;;;;;;17.23;5.45;;;;;;;;;;5050691;28;20187;-70
2023/02/24 13:20:28;;;;;;;11.07;4.85;;;;;;;;;;5047975;28;20202;-70
2023/02/24 13:22:55;;;;;;;22.80;7.20;;;;;;;;;;5050288;28;20207;-70
2023/02/24 13:25:24;;;;;;;12.57;5.47;;;;;;;;;;5051655;28;20215;-70
2023/02/24 13:27:55;;;;;;;12.13;5.15;;;;;;;;;;5051898;28;20203;-71
2023/02/24 13:30:27;;;;;;;12.15;5.50;;;;;;;;;;5038366;28;20217;-71
2023/02/24 13:33:03;;;;;;;12.90;5.30;;;;;;;;;;5038903;28;20190;-71
2023/02/24 13:35:32;;;;;;;13.52;6.28;;;;;;;;;;5052084;28;20286;-70
2023/02/24 13:38:08;;;;;;;18.20;5.80;;;;;;;;;;5045919;28;20194;-70
2023/02/24 13:40:35;;;;;;;7.25;5.38;;;;;;;;;;5045015;28;20197;-70
2023/02/24 13:43:03;;;;;;;11.52;6.50;;;;;;;;;;5050079;28;20202;-70
2023/02/24 13:45:31;;;;;;;11.93;5.57;;;;;;;;;;5052754;28;20280;-70
2023/02/24 13:48:09;;;;;;;16.63;5.88;;;;;;;;;;5050236;28;20674;-70
2023/02/24 13:50:38;;;;;;;16.15;5.90;;;;;;;;;;5045475;28;20195;-71
2023/02/24 13:53:14;;;;;;;8.48;4.90;;;;;;;;;;5047251;28;20663;-70
2023/02/24 13:55:48;;;;;;;9.45;5.93;;;;;;;;;;5051333;28;20582;-70
2023/02/24 13:58:24;;;;;;;13.07;5.40;;;;;;;;;;5048884;28;20209;-70
2023/02/24 14:00:57;;;;;;;12.27;5.13;;;;;;;;;;5046887;28;20209;-70
2023/02/24 14:03:27;;;;;;;15.32;5.07;;;;;;;;;;5037680;28;20226;-69
2023/02/24 14:05:54;;;;;;;13.68;5.50;;;;;;;;;;5031497;28;20589;-70
2023/02/24 14:08:23;;;;;;;7.45;5.50;;;;;;;;;;5045981;28;20261;-70
2023/02/24 14:10:53;;;;;;;9.05;4.88;;;;;;;;;;5045173;28;20203;-72
2023/02/24 14:13:26;;;;;;;14.00;5.80;;;;;;;;;;5039845;28;20241;-73
2023/02/24 14:15:54;;;;;;;6.28;4.13;;;;;;;;;;5049539;28;20199;-74
2023/02/24 14:18:22;;;;;;;19.17;6.47;;;;;;;;;;5037602;28;20199;-70
2023/02/24 14:20:52;;;;;;;8.10;4.35;;;;;;;;;;5049334;28;20199;-71
2023/02/24 14:23:21;;;;;;;7.43;4.32;;;;;;;;;;5048828;28;20199;-71
2023/02/24 14:25:48;;;;;;;7.45;4.00;;;;;;;;;;5044867;28;20226;-71
2023/02/24 14:28:19;;;;;;;7.95;3.72;;;;;;;;;;5053470;28;20217;-71
2023/02/24 14:30:52;;;;;;;5.55;3.28;;;;;;;;;;5049596;28;20664;-69
2023/02/24 14:33:24;;;;;;;12.05;3.90;;;;;;;;;;5034557;28;20553;-71
2023/02/24 14:35:52;;;;;;;8.93;3.88;;;;;;;;;;5048578;28;20199;-72
2023/02/24 14:38:30;;;;;;;5.55;2.83;;;;;;;;;;5054765;28;20698;-70
2023/02/24 14:40:57;;;;;;;10.13;3.70;;;;;;;;;;5054175;28;20545;-69
2023/02/24 14:43:24;;;;;;;10.98;2.92;;;;;;;;;;5052965;28;20305;-71
2023/02/24 14:45:52;;;;;;;6.05;2.60;;;;;;;;;;5052243;28;20226;-70
2023/02/24 14:48:24;;;;;;;15.18;4.35;;;;;;;;;;5054596;28;20205;-70
2023/02/24 14:50:53;;;;;;;10.85;3.78;;;;;;;;;;5045573;28;20202;-70
2023/02/24 14:53:21;;;;;;;10.25;4.20;;;;;;;;;;5034340;28;20223;-71
2023/02/24 14:55:50;;;;;;;11.35;4.38;;;;;;;;;;5034144;28;20234;-73
2023/02/24 14:58:20;;;;;;;14.02;3.92;;;;;;;;;;5051429;28;20198;-71
2023/02/24 15:00:49;;;;;;;10.63;4.10;;;;;;;;;;5034316;28;20207;-71
2023/02/24 15:03:19;;;;;;;6.70;4.10;;;;;;;;;;5042224;28;20206;-72
2023/02/24 15:05:49;;;;;;;10.38;4.03;;;;;;;;;;5050405;28;20195;-72
2023/02/24 15:08:22;;;;;;;24.70;3.90;;;;;;;;;;5044986;28;20198;-73
2023/02/24 15:10:49;;;;;;;11.00;3.60;;;;;;;;;;5050046;28;20214;-70
2023/02/24 15:13:19;;;;;;;6.80;3.50;;;;;;;;;;5052571;28;20201;-71